RYR7492 EPMO-LGRP
Flight info
| Callsign | RYR7492 |
|---|---|
| Flight time | 2h 35m |
| Altitude | 37000 |
| Route | XIMBA DCT OMAVA N195 VENES DCT ROBTU DCT BADOR DCT RUPUG DCT SODGO DCT OVDOT DCT LOMOS DCT WAK DCT NIKTI DCT MES UN139 LURUS UL995 CODIC |
| Aircraft | B738/M-SDE2E3FGHIRWXY/LB1 |
Departure
| Time | 2026-04-23 14:48 |
|---|---|
| Airport | Warsaw Modlin Airport (EPMO) |
Arrival
| Time | 2026-04-23 17:23 |
|---|---|
| Airport | Rhodes International Airport "Diagoras" (LGRP) |
| Time | Latitude | Longitude | Altitude | Speed | Heading |
|---|---|---|---|---|---|
| 2026-04-23 14:36 | 52.44741 | 20.65181 | 334 ft | 0 kts | 206° |
| 2026-04-23 14:41 | 52.44757 | 20.65194 | 332 ft | 3 kts | 207° |
| 2026-04-23 14:41 | 52.44771 | 20.65206 | 335 ft | 1 kts | 191° |
| 2026-04-23 14:42 | 52.44780 | 20.65206 | 332 ft | 1 kts | 124° |
| 2026-04-23 14:42 | 52.44783 | 20.65193 | 333 ft | 1 kts | 93° |
| 2026-04-23 14:42 | 52.44783 | 20.65180 | 333 ft | 1 kts | 85° |
| 2026-04-23 14:42 | 52.44782 | 20.65167 | 333 ft | 1 kts | 82° |
| 2026-04-23 14:43 | 52.44782 | 20.65165 | 333 ft | 0 kts | 81° |
| 2026-04-23 14:43 | 52.44783 | 20.65171 | 333 ft | 2 kts | 80° |
| 2026-04-23 14:43 | 52.44788 | 20.65215 | 333 ft | 6 kts | 80° |
| 2026-04-23 14:43 | 52.44798 | 20.65316 | 337 ft | 11 kts | 81° |
| 2026-04-23 14:44 | 52.44812 | 20.65469 | 335 ft | 16 kts | 81° |
| 2026-04-23 14:44 | 52.44830 | 20.65668 | 337 ft | 20 kts | 83° |
| 2026-04-23 14:44 | 52.44851 | 20.65906 | 336 ft | 23 kts | 81° |
| 2026-04-23 14:44 | 52.44876 | 20.66177 | 336 ft | 25 kts | 82° |
| 2026-04-23 14:45 | 52.44902 | 20.66457 | 337 ft | 24 kts | 81° |
| 2026-04-23 14:45 | 52.44928 | 20.66720 | 337 ft | 23 kts | 81° |
| 2026-04-23 14:45 | 52.44950 | 20.66968 | 336 ft | 17 kts | 81° |
| 2026-04-23 14:45 | 52.45003 | 20.67079 | 336 ft | 13 kts | 1° |
| 2026-04-23 14:46 | 52.45090 | 20.67057 | 334 ft | 13 kts | 351° |
| 2026-04-23 14:46 | 52.45176 | 20.67035 | 335 ft | 12 kts | 351° |
| 2026-04-23 14:46 | 52.45256 | 20.66998 | 335 ft | 8 kts | 343° |
| 2026-04-23 14:46 | 52.45290 | 20.66956 | 338 ft | 6 kts | 274° |
| 2026-04-23 14:47 | 52.45282 | 20.66885 | 333 ft | 8 kts | 260° |
| 2026-04-23 14:47 | 52.45247 | 20.66512 | 335 ft | 67 kts | 262° |
| 2026-04-23 14:47 | 52.45141 | 20.65390 | 338 ft | 129 kts | 261° |
| 2026-04-23 14:47 | 52.44962 | 20.63688 | 538 ft | 160 kts | 263° |
| 2026-04-23 14:48 | 52.44737 | 20.61868 | 1188 ft | 167 kts | 269° |
| 2026-04-23 14:48 | 52.44567 | 20.59958 | 1846 ft | 172 kts | 272° |
| 2026-04-23 14:48 | 52.44394 | 20.57987 | 2517 ft | 176 kts | 269° |
| 2026-04-23 14:48 | 52.44208 | 20.55991 | 3209 ft | 177 kts | 276° |
| 2026-04-23 14:49 | 52.44476 | 20.54127 | 3811 ft | 169 kts | 312° |
| 2026-04-23 14:49 | 52.45402 | 20.52975 | 4252 ft | 175 kts | 340° |
| 2026-04-23 14:49 | 52.46621 | 20.52368 | 4518 ft | 193 kts | 352° |
| 2026-04-23 14:49 | 52.48046 | 20.52270 | 4717 ft | 217 kts | 357° |
| 2026-04-23 14:50 | 52.49640 | 20.52135 | 5103 ft | 234 kts | 356° |
| 2026-04-23 14:50 | 52.51280 | 20.51968 | 5821 ft | 239 kts | 355° |
| 2026-04-23 14:50 | 52.52971 | 20.51803 | 6462 ft | 246 kts | 356° |
| 2026-04-23 14:50 | 52.54670 | 20.51644 | 7251 ft | 246 kts | 356° |
| 2026-04-23 14:51 | 52.56403 | 20.51484 | 7878 ft | 251 kts | 356° |
| 2026-04-23 14:51 | 52.58147 | 20.51649 | 8611 ft | 255 kts | 15° |
| 2026-04-23 14:51 | 52.59709 | 20.53087 | 9348 ft | 264 kts | 38° |
| 2026-04-23 14:51 | 52.60856 | 20.55508 | 10053 ft | 276 kts | 58° |
| 2026-04-23 14:52 | 52.61406 | 20.58583 | 10535 ft | 295 kts | 74° |
| 2026-04-23 14:52 | 52.61717 | 20.62026 | 10804 ft | 313 kts | 76° |
| 2026-04-23 14:52 | 52.62016 | 20.65670 | 11065 ft | 329 kts | 76° |
| 2026-04-23 14:52 | 52.62340 | 20.69460 | 11585 ft | 336 kts | 76° |
| 2026-04-23 14:53 | 52.62676 | 20.73286 | 12304 ft | 338 kts | 75° |
| 2026-04-23 14:53 | 52.62960 | 20.77140 | 13035 ft | 342 kts | 79° |
| 2026-04-23 14:53 | 52.63117 | 20.81075 | 13761 ft | 346 kts | 80° |
| 2026-04-23 14:53 | 52.63250 | 20.85002 | 14411 ft | 349 kts | 80° |
| 2026-04-23 14:54 | 52.63398 | 20.89054 | 15059 ft | 352 kts | 79° |
| 2026-04-23 14:54 | 52.63556 | 20.93100 | 15694 ft | 357 kts | 79° |
| 2026-04-23 14:54 | 52.63484 | 20.97192 | 16275 ft | 373 kts | 96° |
| 2026-04-23 14:54 | 52.62425 | 21.01201 | 16928 ft | 394 kts | 120° |
| 2026-04-23 14:55 | 52.61175 | 21.03483 | 17367 ft | 405 kts | 136° |
| 2026-04-23 14:55 | 52.58843 | 21.06152 | 18045 ft | 410 kts | 143° |
| 2026-04-23 14:55 | 52.56434 | 21.08643 | 18574 ft | 416 kts | 144° |
| 2026-04-23 14:55 | 52.53963 | 21.11173 | 19068 ft | 420 kts | 144° |
| 2026-04-23 14:56 | 52.51475 | 21.13758 | 19597 ft | 423 kts | 143° |
| 2026-04-23 14:56 | 52.48985 | 21.16393 | 20145 ft | 426 kts | 142° |
| 2026-04-23 14:56 | 52.46481 | 21.19065 | 20657 ft | 430 kts | 142° |
| 2026-04-23 14:56 | 52.43919 | 21.21518 | 21117 ft | 440 kts | 154° |
| 2026-04-23 14:57 | 52.40891 | 21.22609 | 21580 ft | 450 kts | 178° |
| 2026-04-23 14:57 | 52.37777 | 21.22003 | 22090 ft | 453 kts | 199° |
| 2026-04-23 14:57 | 52.34933 | 21.19862 | 22570 ft | 450 kts | 218° |
| 2026-04-23 14:57 | 52.32637 | 21.16477 | 23003 ft | 442 kts | 236° |
| 2026-04-23 14:58 | 52.30850 | 21.12706 | 23428 ft | 444 kts | 239° |
| 2026-04-23 14:58 | 52.28958 | 21.08711 | 23776 ft | 452 kts | 234° |
| 2026-04-23 14:58 | 52.26459 | 21.05411 | 24101 ft | 469 kts | 210° |
| 2026-04-23 14:58 | 52.23360 | 21.03689 | 24539 ft | 473 kts | 189° |
| 2026-04-23 14:59 | 52.20081 | 21.03513 | 24933 ft | 473 kts | 170° |
| 2026-04-23 14:59 | 52.16811 | 21.04317 | 25340 ft | 474 kts | 167° |
| 2026-04-23 14:59 | 52.13586 | 21.05202 | 25683 ft | 478 kts | 167° |
| 2026-04-23 14:59 | 52.10284 | 21.06070 | 26011 ft | 483 kts | 168° |
| 2026-04-23 15:00 | 52.06945 | 21.06876 | 26387 ft | 486 kts | 169° |
| 2026-04-23 15:00 | 52.03590 | 21.07671 | 26747 ft | 487 kts | 166° |
| 2026-04-23 15:00 | 52.00413 | 21.09342 | 27135 ft | 477 kts | 146° |
| 2026-04-23 15:00 | 51.97609 | 21.12090 | 27476 ft | 475 kts | 141° |
| 2026-04-23 15:01 | 51.94777 | 21.14934 | 27749 ft | 480 kts | 142° |
| 2026-04-23 15:01 | 51.91907 | 21.17747 | 28061 ft | 484 kts | 142° |
| 2026-04-23 15:01 | 51.89004 | 21.20545 | 28389 ft | 487 kts | 143° |
| 2026-04-23 15:01 | 51.86077 | 21.23341 | 28723 ft | 489 kts | 143° |
| 2026-04-23 15:02 | 51.83141 | 21.26135 | 29057 ft | 491 kts | 143° |
| 2026-04-23 15:02 | 51.80185 | 21.28947 | 29368 ft | 494 kts | 143° |
| 2026-04-23 15:02 | 51.77221 | 21.31766 | 29709 ft | 494 kts | 142° |
| 2026-04-23 15:02 | 51.74248 | 21.34592 | 30087 ft | 496 kts | 142° |
| 2026-04-23 15:03 | 51.71272 | 21.37421 | 30355 ft | 497 kts | 142° |
| 2026-04-23 15:03 | 51.68321 | 21.40222 | 30578 ft | 499 kts | 142° |
| 2026-04-23 15:03 | 51.65322 | 21.43064 | 30809 ft | 502 kts | 142° |
| 2026-04-23 15:03 | 51.62311 | 21.45936 | 31042 ft | 503 kts | 142° |
| 2026-04-23 15:04 | 51.59298 | 21.48830 | 31314 ft | 504 kts | 142° |
| 2026-04-23 15:04 | 51.56285 | 21.51725 | 31641 ft | 503 kts | 142° |
| 2026-04-23 15:04 | 51.53281 | 21.54607 | 32012 ft | 502 kts | 142° |
| 2026-04-23 15:04 | 51.50275 | 21.57484 | 32336 ft | 501 kts | 142° |
| 2026-04-23 15:05 | 51.47276 | 21.60349 | 32648 ft | 501 kts | 142° |
| 2026-04-23 15:05 | 51.44317 | 21.63172 | 32921 ft | 502 kts | 142° |
| 2026-04-23 15:05 | 51.41308 | 21.66037 | 33187 ft | 502 kts | 142° |
| 2026-04-23 15:05 | 51.38267 | 21.68925 | 33501 ft | 502 kts | 142° |
| 2026-04-23 15:06 | 51.35304 | 21.71734 | 33827 ft | 500 kts | 142° |
| 2026-04-23 15:06 | 51.32310 | 21.74570 | 34071 ft | 500 kts | 142° |
| 2026-04-23 15:06 | 51.29313 | 21.77406 | 34299 ft | 500 kts | 142° |
| 2026-04-23 15:06 | 51.26318 | 21.80238 | 34543 ft | 500 kts | 142° |
| 2026-04-23 15:07 | 51.23323 | 21.83066 | 34789 ft | 499 kts | 142° |
| 2026-04-23 15:07 | 51.20337 | 21.85880 | 35026 ft | 498 kts | 143° |
| 2026-04-23 15:07 | 51.17260 | 21.88469 | 35223 ft | 505 kts | 152° |
| 2026-04-23 15:07 | 51.13897 | 21.90216 | 35552 ft | 509 kts | 163° |
| 2026-04-23 15:08 | 51.10400 | 21.91104 | 35835 ft | 511 kts | 174° |
| 2026-04-23 15:08 | 51.06842 | 21.91125 | 36109 ft | 510 kts | 181° |
| 2026-04-23 15:08 | 51.03303 | 21.90912 | 36442 ft | 507 kts | 181° |
| 2026-04-23 15:09 | 50.96316 | 21.90435 | 36929 ft | 504 kts | 181° |
| 2026-04-23 15:09 | 50.89293 | 21.90037 | 36921 ft | 508 kts | 181° |
| 2026-04-23 15:10 | 50.83442 | 21.89763 | 36911 ft | 504 kts | 180° |
| 2026-04-23 15:10 | 50.75270 | 21.89409 | 36921 ft | 500 kts | 180° |
| 2026-04-23 15:11 | 50.68322 | 21.89108 | 36920 ft | 498 kts | 180° |
| 2026-04-23 15:11 | 50.61399 | 21.88805 | 36931 ft | 497 kts | 180° |
| 2026-04-23 15:12 | 50.54535 | 21.88503 | 36955 ft | 496 kts | 181° |
| 2026-04-23 15:12 | 50.47623 | 21.88200 | 36936 ft | 497 kts | 181° |
| 2026-04-23 15:13 | 50.40712 | 21.87898 | 36925 ft | 496 kts | 181° |
| 2026-04-23 15:13 | 50.33801 | 21.87597 | 36931 ft | 496 kts | 181° |
| 2026-04-23 15:14 | 50.26900 | 21.87297 | 36938 ft | 496 kts | 181° |
| 2026-04-23 15:14 | 50.19988 | 21.86998 | 36935 ft | 497 kts | 181° |
| 2026-04-23 15:15 | 50.13111 | 21.86701 | 36937 ft | 496 kts | 181° |
| 2026-04-23 15:15 | 50.06196 | 21.86403 | 36940 ft | 496 kts | 181° |
| 2026-04-23 15:16 | 49.99314 | 21.86108 | 36936 ft | 496 kts | 181° |
| 2026-04-23 15:16 | 49.92419 | 21.85812 | 36941 ft | 495 kts | 180° |
| 2026-04-23 15:17 | 49.85570 | 21.85520 | 36936 ft | 495 kts | 181° |
| 2026-04-23 15:17 | 49.78691 | 21.85227 | 36927 ft | 494 kts | 181° |
| 2026-04-23 15:18 | 49.71830 | 21.84936 | 36938 ft | 493 kts | 181° |
| 2026-04-23 15:18 | 49.64970 | 21.84645 | 36940 ft | 491 kts | 181° |
| 2026-04-23 15:19 | 49.58133 | 21.84357 | 36932 ft | 490 kts | 181° |
| 2026-04-23 15:19 | 49.51325 | 21.84070 | 36930 ft | 488 kts | 181° |
| 2026-04-23 15:20 | 49.45678 | 21.83833 | 36923 ft | 487 kts | 181° |
| 2026-04-23 15:20 | 49.37812 | 21.83504 | 36936 ft | 486 kts | 181° |
| 2026-04-23 15:21 | 49.31051 | 21.83222 | 36937 ft | 485 kts | 181° |
| 2026-04-23 15:21 | 49.24303 | 21.82941 | 36933 ft | 485 kts | 181° |
| 2026-04-23 15:22 | 49.17588 | 21.82662 | 36930 ft | 485 kts | 181° |
| 2026-04-23 15:22 | 49.10832 | 21.82382 | 36938 ft | 485 kts | 181° |
| 2026-04-23 15:23 | 49.04074 | 21.82103 | 36931 ft | 486 kts | 181° |
| 2026-04-23 15:23 | 48.97330 | 21.81825 | 36929 ft | 486 kts | 181° |
| 2026-04-23 15:24 | 48.90560 | 21.81553 | 36932 ft | 487 kts | 180° |
| 2026-04-23 15:24 | 48.83823 | 21.82511 | 36943 ft | 485 kts | 169° |
| 2026-04-23 15:25 | 48.77191 | 21.84147 | 36920 ft | 486 kts | 169° |
| 2026-04-23 15:25 | 48.70507 | 21.85767 | 36926 ft | 486 kts | 170° |
| 2026-04-23 15:26 | 48.63801 | 21.87311 | 36926 ft | 487 kts | 170° |
| 2026-04-23 15:26 | 48.57097 | 21.88818 | 36925 ft | 487 kts | 170° |
| 2026-04-23 15:27 | 48.50437 | 21.90308 | 36925 ft | 486 kts | 171° |
| 2026-04-23 15:27 | 48.43752 | 21.91803 | 36926 ft | 485 kts | 170° |
| 2026-04-23 15:28 | 48.37077 | 21.93294 | 36931 ft | 484 kts | 170° |
| 2026-04-23 15:28 | 48.30414 | 21.94780 | 36931 ft | 483 kts | 170° |
| 2026-04-23 15:29 | 48.23755 | 21.96260 | 36929 ft | 483 kts | 171° |
| 2026-04-23 15:29 | 48.17117 | 21.97731 | 36925 ft | 482 kts | 171° |
| 2026-04-23 15:30 | 48.10480 | 21.99198 | 36921 ft | 481 kts | 171° |
| 2026-04-23 15:30 | 48.04041 | 22.00618 | 36911 ft | 480 kts | 171° |
| 2026-04-23 15:31 | 47.97443 | 22.02070 | 36921 ft | 480 kts | 171° |
| 2026-04-23 15:31 | 47.90836 | 22.03519 | 36921 ft | 479 kts | 171° |
| 2026-04-23 15:32 | 47.84232 | 22.04964 | 36921 ft | 479 kts | 171° |
| 2026-04-23 15:32 | 47.77627 | 22.06406 | 36926 ft | 480 kts | 171° |
| 2026-04-23 15:33 | 47.71062 | 22.07836 | 36927 ft | 480 kts | 171° |
| 2026-04-23 15:33 | 47.64454 | 22.09271 | 36927 ft | 480 kts | 171° |
| 2026-04-23 15:34 | 47.57820 | 22.10709 | 36930 ft | 480 kts | 171° |
| 2026-04-23 15:34 | 47.51244 | 22.12147 | 36930 ft | 480 kts | 171° |
| 2026-04-23 15:35 | 47.44615 | 22.13610 | 36926 ft | 481 kts | 171° |
| 2026-04-23 15:35 | 47.37988 | 22.15068 | 36946 ft | 481 kts | 171° |
| 2026-04-23 15:36 | 47.31364 | 22.16519 | 36935 ft | 481 kts | 171° |
| 2026-04-23 15:36 | 47.24755 | 22.17962 | 36932 ft | 482 kts | 171° |
| 2026-04-23 15:37 | 47.18127 | 22.19405 | 36935 ft | 481 kts | 171° |
| 2026-04-23 15:37 | 47.12618 | 22.20603 | 36930 ft | 482 kts | 171° |
| 2026-04-23 15:38 | 47.04885 | 22.22279 | 36939 ft | 481 kts | 171° |
| 2026-04-23 15:38 | 46.98303 | 22.23703 | 36937 ft | 480 kts | 171° |
| 2026-04-23 15:39 | 46.91678 | 22.25132 | 36948 ft | 481 kts | 171° |
| 2026-04-23 15:39 | 46.85102 | 22.26889 | 36929 ft | 480 kts | 167° |
| 2026-04-23 15:40 | 46.78579 | 22.28926 | 36933 ft | 479 kts | 166° |
| 2026-04-23 15:40 | 46.72072 | 22.30953 | 36935 ft | 478 kts | 167° |
| 2026-04-23 15:41 | 46.65557 | 22.32932 | 36936 ft | 478 kts | 167° |
| 2026-04-23 15:41 | 46.59083 | 22.34871 | 36938 ft | 478 kts | 167° |
| 2026-04-23 15:42 | 46.52559 | 22.36816 | 36934 ft | 478 kts | 167° |
| 2026-04-23 15:42 | 46.47134 | 22.38431 | 36952 ft | 479 kts | 167° |
| 2026-04-23 15:43 | 46.40595 | 22.40373 | 36930 ft | 479 kts | 167° |
| 2026-04-23 15:43 | 46.34050 | 22.42314 | 36932 ft | 479 kts | 167° |
| 2026-04-23 15:44 | 46.27550 | 22.44237 | 36941 ft | 479 kts | 167° |
| 2026-04-23 15:44 | 46.21015 | 22.46166 | 36946 ft | 479 kts | 167° |
| 2026-04-23 15:45 | 46.14494 | 22.48085 | 36958 ft | 478 kts | 167° |
| 2026-04-23 15:45 | 46.07981 | 22.49998 | 36946 ft | 477 kts | 167° |
| 2026-04-23 15:46 | 46.01486 | 22.51900 | 36934 ft | 475 kts | 167° |
| 2026-04-23 15:46 | 45.95059 | 22.53779 | 36944 ft | 473 kts | 167° |
| 2026-04-23 15:47 | 45.88619 | 22.55657 | 36957 ft | 471 kts | 167° |
| 2026-04-23 15:47 | 45.82203 | 22.57523 | 36958 ft | 469 kts | 167° |
| 2026-04-23 15:48 | 45.75804 | 22.59380 | 36965 ft | 468 kts | 167° |
| 2026-04-23 15:48 | 45.69452 | 22.61220 | 36961 ft | 468 kts | 166° |
| 2026-04-23 15:49 | 45.63058 | 22.63067 | 36952 ft | 469 kts | 166° |
| 2026-04-23 15:49 | 45.56653 | 22.64912 | 36967 ft | 469 kts | 166° |
| 2026-04-23 15:50 | 45.50245 | 22.66755 | 36948 ft | 469 kts | 166° |
| 2026-04-23 15:50 | 45.43870 | 22.68584 | 36956 ft | 471 kts | 166° |
| 2026-04-23 15:51 | 45.37439 | 22.70424 | 36961 ft | 472 kts | 167° |
| 2026-04-23 15:51 | 45.30987 | 22.72265 | 36961 ft | 471 kts | 166° |
| 2026-04-23 15:52 | 45.24541 | 22.74087 | 36971 ft | 471 kts | 166° |
| 2026-04-23 15:52 | 45.18107 | 22.75925 | 36926 ft | 473 kts | 166° |
| 2026-04-23 15:53 | 45.11708 | 22.77746 | 36934 ft | 471 kts | 166° |
| 2026-04-23 15:53 | 45.05289 | 22.79562 | 36944 ft | 469 kts | 166° |
| 2026-04-23 15:54 | 44.98895 | 22.81366 | 36942 ft | 468 kts | 166° |
| 2026-04-23 15:54 | 44.92517 | 22.83164 | 36938 ft | 467 kts | 166° |
| 2026-04-23 15:55 | 44.86194 | 22.84967 | 36925 ft | 465 kts | 163° |
| 2026-04-23 15:55 | 44.79955 | 22.87338 | 36939 ft | 464 kts | 161° |
| 2026-04-23 15:56 | 44.73749 | 22.89876 | 36936 ft | 465 kts | 161° |
| 2026-04-23 15:56 | 44.67515 | 22.92365 | 36950 ft | 466 kts | 161° |
| 2026-04-23 15:57 | 44.61263 | 22.94818 | 36937 ft | 467 kts | 161° |
| 2026-04-23 15:57 | 44.55032 | 22.97256 | 36944 ft | 468 kts | 161° |
| 2026-04-23 15:58 | 44.48740 | 22.99715 | 36937 ft | 469 kts | 161° |
| 2026-04-23 15:58 | 44.42580 | 23.02118 | 36939 ft | 469 kts | 161° |
| 2026-04-23 15:59 | 44.36322 | 23.04556 | 36962 ft | 469 kts | 161° |
| 2026-04-23 15:59 | 44.30030 | 23.07002 | 36949 ft | 469 kts | 161° |
| 2026-04-23 16:00 | 44.23742 | 23.09440 | 36944 ft | 468 kts | 161° |
| 2026-04-23 16:00 | 44.17467 | 23.11868 | 36945 ft | 467 kts | 161° |
| 2026-04-23 16:01 | 44.11204 | 23.14286 | 36947 ft | 465 kts | 161° |
| 2026-04-23 16:01 | 44.04965 | 23.16690 | 36971 ft | 464 kts | 161° |
| 2026-04-23 16:02 | 43.98792 | 23.19064 | 36962 ft | 464 kts | 161° |
| 2026-04-23 16:02 | 43.92576 | 23.21449 | 36961 ft | 463 kts | 161° |
| 2026-04-23 16:03 | 43.86371 | 23.23825 | 36956 ft | 462 kts | 161° |
| 2026-04-23 16:03 | 43.80167 | 23.26176 | 36964 ft | 462 kts | 162° |
| 2026-04-23 16:04 | 43.73953 | 23.28457 | 36965 ft | 461 kts | 162° |
| 2026-04-23 16:04 | 43.67750 | 23.30719 | 36968 ft | 461 kts | 162° |
| 2026-04-23 16:05 | 43.62594 | 23.32602 | 36969 ft | 461 kts | 162° |
| 2026-04-23 16:05 | 43.55377 | 23.35240 | 36968 ft | 461 kts | 162° |
| 2026-04-23 16:06 | 43.49177 | 23.37502 | 36955 ft | 461 kts | 162° |
| 2026-04-23 16:06 | 43.42970 | 23.39762 | 36974 ft | 461 kts | 162° |
| 2026-04-23 16:07 | 43.36760 | 23.42018 | 36977 ft | 462 kts | 162° |
| 2026-04-23 16:07 | 43.30536 | 23.44274 | 36978 ft | 463 kts | 161° |
| 2026-04-23 16:08 | 43.24306 | 23.46528 | 36982 ft | 464 kts | 162° |
| 2026-04-23 16:08 | 43.18052 | 23.48785 | 36974 ft | 465 kts | 162° |
| 2026-04-23 16:09 | 43.11808 | 23.51034 | 36979 ft | 466 kts | 162° |
| 2026-04-23 16:09 | 43.05528 | 23.53291 | 36993 ft | 466 kts | 161° |
| 2026-04-23 16:10 | 42.99256 | 23.55541 | 36985 ft | 467 kts | 161° |
| 2026-04-23 16:10 | 42.92967 | 23.57791 | 36981 ft | 467 kts | 161° |
| 2026-04-23 16:11 | 42.86686 | 23.60034 | 36983 ft | 466 kts | 161° |
| 2026-04-23 16:11 | 42.80449 | 23.62257 | 36971 ft | 465 kts | 161° |
| 2026-04-23 16:12 | 42.74199 | 23.64480 | 36987 ft | 463 kts | 162° |
| 2026-04-23 16:12 | 42.67962 | 23.66694 | 36976 ft | 462 kts | 162° |
| 2026-04-23 16:13 | 42.61753 | 23.68895 | 36983 ft | 460 kts | 162° |
| 2026-04-23 16:13 | 42.52546 | 23.72317 | 36977 ft | 458 kts | 159° |
| 2026-04-23 16:14 | 42.46468 | 23.74874 | 36985 ft | 457 kts | 159° |
| 2026-04-23 16:14 | 42.40393 | 23.77427 | 36990 ft | 456 kts | 160° |
| 2026-04-23 16:15 | 42.34323 | 23.79936 | 36979 ft | 456 kts | 160° |
| 2026-04-23 16:15 | 42.28246 | 23.82426 | 36982 ft | 456 kts | 160° |
| 2026-04-23 16:16 | 42.22171 | 23.84908 | 36978 ft | 456 kts | 160° |
| 2026-04-23 16:16 | 42.16132 | 23.87371 | 36982 ft | 456 kts | 160° |
| 2026-04-23 16:17 | 42.10040 | 23.89851 | 36984 ft | 456 kts | 160° |
| 2026-04-23 16:17 | 42.03956 | 23.92323 | 36980 ft | 457 kts | 160° |
| 2026-04-23 16:18 | 41.97897 | 23.94779 | 36983 ft | 457 kts | 160° |
| 2026-04-23 16:18 | 41.91801 | 23.97247 | 36972 ft | 457 kts | 160° |
| 2026-04-23 16:19 | 41.85739 | 23.99695 | 36979 ft | 457 kts | 160° |
| 2026-04-23 16:19 | 41.79770 | 24.02102 | 36978 ft | 458 kts | 161° |
| 2026-04-23 16:20 | 41.73666 | 24.04557 | 36975 ft | 458 kts | 161° |
| 2026-04-23 16:20 | 41.67562 | 24.07009 | 36990 ft | 458 kts | 161° |
| 2026-04-23 16:21 | 41.61486 | 24.09447 | 36990 ft | 458 kts | 161° |
| 2026-04-23 16:21 | 41.55377 | 24.11891 | 36984 ft | 458 kts | 161° |
| 2026-04-23 16:22 | 41.49433 | 24.14918 | 36990 ft | 456 kts | 155° |
| 2026-04-23 16:22 | 41.43632 | 24.18316 | 36974 ft | 455 kts | 154° |
| 2026-04-23 16:23 | 41.37870 | 24.21683 | 36991 ft | 454 kts | 155° |
| 2026-04-23 16:23 | 41.32064 | 24.25028 | 36992 ft | 454 kts | 154° |
| 2026-04-23 16:24 | 41.26382 | 24.28710 | 36983 ft | 454 kts | 152° |
| 2026-04-23 16:24 | 41.20770 | 24.32545 | 36985 ft | 454 kts | 151° |
| 2026-04-23 16:25 | 41.15143 | 24.36355 | 36981 ft | 454 kts | 152° |
| 2026-04-23 16:25 | 41.09492 | 24.40130 | 37000 ft | 454 kts | 153° |
| 2026-04-23 16:26 | 41.03877 | 24.43852 | 36993 ft | 454 kts | 153° |
| 2026-04-23 16:26 | 40.98219 | 24.47591 | 36992 ft | 455 kts | 153° |
| 2026-04-23 16:27 | 40.92548 | 24.51336 | 36982 ft | 456 kts | 154° |
| 2026-04-23 16:27 | 40.86868 | 24.55077 | 36995 ft | 456 kts | 154° |
| 2026-04-23 16:28 | 40.81180 | 24.58816 | 36996 ft | 457 kts | 154° |
| 2026-04-23 16:28 | 40.75485 | 24.62553 | 36993 ft | 457 kts | 154° |
| 2026-04-23 16:29 | 40.70746 | 24.65658 | 36986 ft | 458 kts | 154° |
| 2026-04-23 16:29 | 40.64106 | 24.70001 | 36982 ft | 458 kts | 154° |
| 2026-04-23 16:30 | 40.58393 | 24.73729 | 36989 ft | 458 kts | 154° |
| 2026-04-23 16:30 | 40.53599 | 24.76852 | 36992 ft | 458 kts | 154° |
| 2026-04-23 16:31 | 40.47881 | 24.80570 | 36985 ft | 458 kts | 154° |
| 2026-04-23 16:31 | 40.42202 | 24.84257 | 36981 ft | 458 kts | 155° |
| 2026-04-23 16:32 | 40.36483 | 24.87961 | 36994 ft | 458 kts | 155° |
| 2026-04-23 16:32 | 40.30775 | 24.91652 | 36988 ft | 458 kts | 155° |
| 2026-04-23 16:33 | 40.25061 | 24.95339 | 36994 ft | 457 kts | 155° |
| 2026-04-23 16:33 | 40.19378 | 24.99000 | 36981 ft | 457 kts | 155° |
| 2026-04-23 16:34 | 40.13761 | 25.02612 | 36986 ft | 457 kts | 156° |
| 2026-04-23 16:34 | 40.08059 | 25.06271 | 36991 ft | 457 kts | 156° |
| 2026-04-23 16:35 | 40.02379 | 25.09908 | 36994 ft | 457 kts | 156° |
| 2026-04-23 16:35 | 39.96661 | 25.13564 | 36997 ft | 458 kts | 156° |
| 2026-04-23 16:36 | 39.90926 | 25.17224 | 36993 ft | 458 kts | 156° |
| 2026-04-23 16:36 | 39.85198 | 25.20872 | 36998 ft | 459 kts | 156° |
| 2026-04-23 16:37 | 39.79491 | 25.24501 | 36994 ft | 459 kts | 156° |
| 2026-04-23 16:37 | 39.73747 | 25.28144 | 36978 ft | 459 kts | 157° |
| 2026-04-23 16:38 | 39.68005 | 25.31781 | 36987 ft | 459 kts | 157° |
| 2026-04-23 16:38 | 39.62270 | 25.35408 | 36990 ft | 459 kts | 157° |
| 2026-04-23 16:39 | 39.56561 | 25.39011 | 36985 ft | 459 kts | 157° |
| 2026-04-23 16:39 | 39.50817 | 25.42629 | 36963 ft | 459 kts | 158° |
| 2026-04-23 16:40 | 39.45066 | 25.46244 | 36976 ft | 458 kts | 158° |
| 2026-04-23 16:40 | 39.39330 | 25.49844 | 36977 ft | 458 kts | 158° |
| 2026-04-23 16:41 | 39.33588 | 25.53441 | 36976 ft | 458 kts | 158° |
| 2026-04-23 16:41 | 39.27853 | 25.57027 | 36969 ft | 458 kts | 158° |
| 2026-04-23 16:42 | 39.22110 | 25.60612 | 36971 ft | 458 kts | 158° |
| 2026-04-23 16:42 | 39.16394 | 25.64173 | 36970 ft | 458 kts | 159° |
| 2026-04-23 16:43 | 39.10648 | 25.67746 | 36977 ft | 458 kts | 159° |
| 2026-04-23 16:43 | 39.04898 | 25.71314 | 36965 ft | 459 kts | 159° |
| 2026-04-23 16:44 | 38.99151 | 25.74875 | 36962 ft | 459 kts | 159° |
| 2026-04-23 16:44 | 38.93395 | 25.78435 | 36966 ft | 459 kts | 159° |
| 2026-04-23 16:45 | 38.87629 | 25.81995 | 36965 ft | 459 kts | 159° |
| 2026-04-23 16:45 | 38.81888 | 25.85533 | 36965 ft | 460 kts | 159° |
| 2026-04-23 16:46 | 38.76113 | 25.89085 | 36947 ft | 460 kts | 160° |
| 2026-04-23 16:46 | 38.70341 | 25.92629 | 36957 ft | 460 kts | 160° |
| 2026-04-23 16:47 | 38.64557 | 25.96174 | 36959 ft | 460 kts | 160° |
| 2026-04-23 16:47 | 38.58819 | 25.99685 | 36959 ft | 460 kts | 160° |
| 2026-04-23 16:48 | 38.53173 | 26.03134 | 36929 ft | 459 kts | 161° |
| 2026-04-23 16:48 | 38.47401 | 26.06653 | 36965 ft | 458 kts | 161° |
| 2026-04-23 16:49 | 38.41640 | 26.10159 | 36961 ft | 458 kts | 161° |
| 2026-04-23 16:49 | 38.35887 | 26.13652 | 36971 ft | 457 kts | 161° |
| 2026-04-23 16:50 | 38.30137 | 26.17140 | 36969 ft | 458 kts | 161° |
| 2026-04-23 16:50 | 38.24420 | 26.20601 | 36962 ft | 457 kts | 161° |
| 2026-04-23 16:51 | 38.18665 | 26.24079 | 36963 ft | 458 kts | 161° |
| 2026-04-23 16:51 | 38.12903 | 26.27553 | 36931 ft | 458 kts | 162° |
| 2026-04-23 16:52 | 38.07142 | 26.31023 | 36939 ft | 458 kts | 162° |
| 2026-04-23 16:52 | 38.01376 | 26.34489 | 36930 ft | 459 kts | 162° |
| 2026-04-23 16:53 | 37.95619 | 26.37943 | 36938 ft | 459 kts | 162° |
| 2026-04-23 16:53 | 37.89839 | 26.41405 | 36934 ft | 459 kts | 162° |
| 2026-04-23 16:54 | 37.84085 | 26.44846 | 36935 ft | 459 kts | 162° |
| 2026-04-23 16:54 | 37.78300 | 26.48304 | 36908 ft | 459 kts | 162° |
| 2026-04-23 16:55 | 37.72518 | 26.51748 | 36713 ft | 461 kts | 162° |
| 2026-04-23 16:55 | 37.69617 | 26.53472 | 36452 ft | 460 kts | 162° |
| 2026-04-23 16:55 | 37.66735 | 26.55188 | 36193 ft | 456 kts | 162° |
| 2026-04-23 16:56 | 37.63869 | 26.56893 | 35927 ft | 454 kts | 163° |
| 2026-04-23 16:56 | 37.61039 | 26.58573 | 35689 ft | 454 kts | 163° |
| 2026-04-23 16:56 | 37.58180 | 26.60268 | 35444 ft | 454 kts | 163° |
| 2026-04-23 16:56 | 37.55325 | 26.61958 | 35202 ft | 454 kts | 163° |
| 2026-04-23 16:57 | 37.52472 | 26.63647 | 34958 ft | 453 kts | 163° |
| 2026-04-23 16:57 | 37.49612 | 26.65338 | 34715 ft | 453 kts | 163° |
| 2026-04-23 16:57 | 37.46761 | 26.67023 | 34126 ft | 453 kts | 163° |
| 2026-04-23 16:57 | 37.43901 | 26.68711 | 33515 ft | 453 kts | 163° |
| 2026-04-23 16:58 | 37.41045 | 26.70396 | 32843 ft | 454 kts | 163° |
| 2026-04-23 16:58 | 37.38181 | 26.72084 | 32196 ft | 454 kts | 163° |
| 2026-04-23 16:58 | 37.35319 | 26.73769 | 31537 ft | 455 kts | 163° |
| 2026-04-23 16:58 | 37.32464 | 26.75451 | 31047 ft | 451 kts | 163° |
| 2026-04-23 16:59 | 37.29633 | 26.77122 | 30539 ft | 447 kts | 163° |
| 2026-04-23 16:59 | 37.26823 | 26.78776 | 30101 ft | 444 kts | 163° |
| 2026-04-23 16:59 | 37.24043 | 26.80410 | 29595 ft | 439 kts | 163° |
| 2026-04-23 16:59 | 37.21285 | 26.82029 | 29116 ft | 434 kts | 163° |
| 2026-04-23 17:00 | 37.18574 | 26.83615 | 28647 ft | 437 kts | 163° |
| 2026-04-23 17:00 | 37.15816 | 26.85228 | 28134 ft | 434 kts | 163° |
| 2026-04-23 17:00 | 37.13079 | 26.86828 | 27566 ft | 432 kts | 163° |
| 2026-04-23 17:00 | 37.10350 | 26.88423 | 26995 ft | 430 kts | 162° |
| 2026-04-23 17:01 | 37.07646 | 26.90004 | 26485 ft | 427 kts | 162° |
| 2026-04-23 17:01 | 37.04991 | 26.91555 | 25961 ft | 424 kts | 162° |
| 2026-04-23 17:01 | 37.02325 | 26.93110 | 25504 ft | 421 kts | 162° |
| 2026-04-23 17:01 | 36.99694 | 26.94645 | 25063 ft | 417 kts | 162° |
| 2026-04-23 17:02 | 36.97950 | 26.95661 | 24774 ft | 415 kts | 162° |
| 2026-04-23 17:02 | 36.94460 | 26.97694 | 24163 ft | 413 kts | 162° |
| 2026-04-23 17:02 | 36.91859 | 26.99206 | 23722 ft | 411 kts | 162° |
| 2026-04-23 17:02 | 36.89386 | 27.00648 | 23296 ft | 407 kts | 162° |
| 2026-04-23 17:03 | 36.86827 | 27.02133 | 22808 ft | 403 kts | 162° |
| 2026-04-23 17:03 | 36.84298 | 27.03599 | 22338 ft | 400 kts | 162° |
| 2026-04-23 17:03 | 36.81819 | 27.05034 | 21862 ft | 397 kts | 162° |
| 2026-04-23 17:03 | 36.79323 | 27.06480 | 21374 ft | 394 kts | 162° |
| 2026-04-23 17:04 | 36.76841 | 27.07917 | 20904 ft | 391 kts | 162° |
| 2026-04-23 17:04 | 36.74380 | 27.09341 | 20462 ft | 388 kts | 162° |
| 2026-04-23 17:04 | 36.71940 | 27.10752 | 20027 ft | 385 kts | 162° |
| 2026-04-23 17:04 | 36.69556 | 27.12278 | 19579 ft | 389 kts | 153° |
| 2026-04-23 17:05 | 36.67522 | 27.14557 | 19144 ft | 399 kts | 134° |
| 2026-04-23 17:05 | 36.66067 | 27.17516 | 18737 ft | 404 kts | 118° |
| 2026-04-23 17:05 | 36.64939 | 27.20711 | 18396 ft | 400 kts | 117° |
| 2026-04-23 17:05 | 36.63858 | 27.23900 | 17954 ft | 398 kts | 116° |
| 2026-04-23 17:06 | 36.62801 | 27.27030 | 17476 ft | 396 kts | 116° |
| 2026-04-23 17:06 | 36.61729 | 27.30173 | 17025 ft | 393 kts | 117° |
| 2026-04-23 17:06 | 36.60655 | 27.33285 | 16596 ft | 390 kts | 117° |
| 2026-04-23 17:06 | 36.59580 | 27.36371 | 16163 ft | 387 kts | 117° |
| 2026-04-23 17:07 | 36.58507 | 27.39432 | 15733 ft | 385 kts | 117° |
| 2026-04-23 17:07 | 36.57440 | 27.42465 | 15324 ft | 382 kts | 117° |
| 2026-04-23 17:07 | 36.56374 | 27.45492 | 14912 ft | 380 kts | 117° |
| 2026-04-23 17:07 | 36.55318 | 27.48484 | 14500 ft | 377 kts | 116° |
| 2026-04-23 17:08 | 36.54269 | 27.51457 | 14116 ft | 374 kts | 116° |
| 2026-04-23 17:08 | 36.53223 | 27.54416 | 13718 ft | 372 kts | 116° |
| 2026-04-23 17:08 | 36.52182 | 27.57358 | 13275 ft | 370 kts | 116° |
| 2026-04-23 17:08 | 36.51148 | 27.60282 | 12840 ft | 367 kts | 116° |
| 2026-04-23 17:09 | 36.50122 | 27.63178 | 12440 ft | 365 kts | 116° |
| 2026-04-23 17:09 | 36.49109 | 27.66036 | 12174 ft | 358 kts | 116° |
| 2026-04-23 17:09 | 36.48127 | 27.68805 | 11916 ft | 351 kts | 116° |
| 2026-04-23 17:09 | 36.47159 | 27.71560 | 11655 ft | 345 kts | 115° |
| 2026-04-23 17:10 | 36.46227 | 27.74281 | 11403 ft | 339 kts | 115° |
| 2026-04-23 17:10 | 36.45316 | 27.76958 | 11150 ft | 334 kts | 115° |
| 2026-04-23 17:10 | 36.44420 | 27.79601 | 10903 ft | 329 kts | 115° |
| 2026-04-23 17:10 | 36.43539 | 27.82206 | 10659 ft | 324 kts | 115° |
| 2026-04-23 17:11 | 36.42676 | 27.84764 | 10449 ft | 320 kts | 115° |
| 2026-04-23 17:11 | 36.41825 | 27.87301 | 10197 ft | 316 kts | 113° |
| 2026-04-23 17:11 | 36.41404 | 27.89977 | 9853 ft | 319 kts | 88° |
| 2026-04-23 17:11 | 36.41853 | 27.92652 | 9547 ft | 315 kts | 69° |
| 2026-04-23 17:12 | 36.42652 | 27.95136 | 9263 ft | 312 kts | 64° |
| 2026-04-23 17:12 | 36.43555 | 27.97574 | 8947 ft | 310 kts | 63° |
| 2026-04-23 17:12 | 36.44477 | 27.99988 | 8656 ft | 308 kts | 63° |
| 2026-04-23 17:12 | 36.45345 | 28.02285 | 8370 ft | 306 kts | 63° |
| 2026-04-23 17:13 | 36.46233 | 28.04644 | 8079 ft | 304 kts | 63° |
| 2026-04-23 17:13 | 36.47123 | 28.07016 | 7789 ft | 302 kts | 63° |
| 2026-04-23 17:13 | 36.48017 | 28.09382 | 7448 ft | 302 kts | 63° |
| 2026-04-23 17:13 | 36.48910 | 28.11736 | 7186 ft | 299 kts | 63° |
| 2026-04-23 17:14 | 36.49798 | 28.14065 | 6903 ft | 297 kts | 63° |
| 2026-04-23 17:14 | 36.50681 | 28.16377 | 6639 ft | 295 kts | 63° |
| 2026-04-23 17:14 | 36.51561 | 28.18671 | 6370 ft | 293 kts | 63° |
| 2026-04-23 17:14 | 36.52438 | 28.20938 | 6117 ft | 289 kts | 63° |
| 2026-04-23 17:15 | 36.53313 | 28.23190 | 5834 ft | 288 kts | 63° |
| 2026-04-23 17:15 | 36.54176 | 28.25410 | 5535 ft | 282 kts | 63° |
| 2026-04-23 17:15 | 36.55023 | 28.27590 | 5228 ft | 277 kts | 63° |
| 2026-04-23 17:15 | 36.55853 | 28.29736 | 4918 ft | 272 kts | 64° |
| 2026-04-23 17:16 | 36.56332 | 28.31982 | 4597 ft | 269 kts | 90° |
| 2026-04-23 17:16 | 36.55936 | 28.34182 | 4264 ft | 263 kts | 119° |
| 2026-04-23 17:16 | 36.54764 | 28.35856 | 3865 ft | 255 kts | 149° |
| 2026-04-23 17:16 | 36.53140 | 28.36563 | 3490 ft | 245 kts | 180° |
| 2026-04-23 17:17 | 36.52017 | 28.36399 | 3333 ft | 239 kts | 199° |
| 2026-04-23 17:17 | 36.49982 | 28.35435 | 3020 ft | 235 kts | 205° |
| 2026-04-23 17:17 | 36.48992 | 28.34882 | 2847 ft | 234 kts | 207° |
| 2026-04-23 17:17 | 36.47539 | 28.33969 | 2590 ft | 232 kts | 216° |
| 2026-04-23 17:18 | 36.46430 | 28.30691 | 2214 ft | 204 kts | 269° |
| 2026-04-23 17:18 | 36.46255 | 28.28987 | 2055 ft | 193 kts | 258° |
| 2026-04-23 17:18 | 36.45959 | 28.27419 | 1974 ft | 179 kts | 257° |
| 2026-04-23 17:19 | 36.45611 | 28.25963 | 1981 ft | 176 kts | 253° |
| 2026-04-23 17:19 | 36.45206 | 28.24518 | 1980 ft | 176 kts | 252° |
| 2026-04-23 17:19 | 36.44789 | 28.23092 | 1984 ft | 175 kts | 251° |
| 2026-04-23 17:19 | 36.44375 | 28.21687 | 1897 ft | 178 kts | 251° |
| 2026-04-23 17:20 | 36.43949 | 28.20241 | 1689 ft | 177 kts | 252° |
| 2026-04-23 17:20 | 36.43153 | 28.17538 | 1261 ft | 155 kts | 252° |
| 2026-04-23 17:21 | 36.42431 | 28.15078 | 828 ft | 145 kts | 252° |
| 2026-04-23 17:21 | 36.42083 | 28.13894 | 649 ft | 149 kts | 252° |
| 2026-04-23 17:21 | 36.41377 | 28.11502 | 208 ft | 145 kts | 252° |
| 2026-04-23 17:22 | 36.41041 | 28.10360 | 59 ft | 141 kts | 252° |
| 2026-04-23 17:22 | 36.40531 | 28.08609 | 26 ft | 55 kts | 250° |
| 2026-04-23 17:23 | 36.40319 | 28.07997 | 29 ft | 24 kts | 217° |
| 2026-04-23 17:23 | 36.40234 | 28.07911 | 27 ft | 14 kts | 220° |
| 2026-04-23 17:23 | 36.40153 | 28.07936 | 28 ft | 10 kts | 71° |
| 2026-04-23 17:24 | 36.40174 | 28.08013 | 27 ft | 9 kts | 71° |
| 2026-04-23 17:24 | 36.40196 | 28.08090 | 30 ft | 10 kts | 71° |
| 2026-04-23 17:24 | 36.40254 | 28.08282 | 27 ft | 14 kts | 69° |
| 2026-04-23 17:25 | 36.40333 | 28.08548 | 27 ft | 18 kts | 70° |
| 2026-04-23 17:25 | 36.40375 | 28.08687 | 28 ft | 15 kts | 70° |
| 2026-04-23 17:26 | 36.40400 | 28.08876 | 28 ft | 10 kts | 94° |
| 2026-04-23 17:26 | 36.40408 | 28.09029 | 28 ft | 7 kts | 72° |
| 2026-04-23 17:27 | 36.40364 | 28.09084 | 28 ft | 3 kts | 160° |
| 2026-04-23 17:27 | 36.40359 | 28.09087 | 28 ft | 0 kts | 160° |